Time;durP1;ratioP1;P1;durP2;ratioP2;P2;SDS_P1;SDS_P2;PMS_P1;PMS_P2;Temp;Humidity;BMP_temperature;BMP_pressure;BME280_temperature;BME280_humidity;BME280_pressure;Samples;Min_cycle;Max_cycle;Signal;HPM_P1;HPM_P2
2023/04/25 00:00:07;;;;;;;4.30;3.90;;;;;;;9.15;100.00;96780.83;106956;1275;25372;-82
2023/04/25 00:02:59;;;;;;;6.20;4.40;;;;;;;9.10;100.00;96775.74;106984;1275;22535;-82
2023/04/25 00:05:29;;;;;;;5.50;4.90;;;;;;;9.12;100.00;96773.37;106660;1275;24195;-82
2023/04/25 00:07:58;;;;;;;6.30;4.60;;;;;;;9.15;100.00;96772.97;106920;1275;24211;-83
2023/04/25 00:10:26;;;;;;;6.50;4.90;;;;;;;9.11;100.00;96778.84;106956;1275;23904;-83
2023/04/25 00:12:54;;;;;;;6.90;4.80;;;;;;;9.08;100.00;96776.36;106962;1275;23146;-84
2023/04/25 00:15:22;;;;;;;6.90;5.10;;;;;;;9.08;100.00;96775.45;106697;1275;24324;-83
2023/04/25 00:17:52;;;;;;;7.60;5.30;;;;;;;9.08;100.00;96775.90;106967;1275;25536;-83
2023/04/25 00:20:21;;;;;;;7.80;6.10;;;;;;;9.11;100.00;96776.16;106977;1275;22788;-83
2023/04/25 00:22:49;;;;;;;9.50;7.00;;;;;;;9.11;100.00;96781.38;106909;1275;25237;-84
2023/04/25 00:25:17;;;;;;;12.50;7.70;;;;;;;9.10;100.00;96776.83;106907;1275;22528;-83
2023/04/25 00:27:45;;;;;;;11.90;7.90;;;;;;;9.10;100.00;96779.95;106965;1275;22537;-83
2023/04/25 00:30:14;;;;;;;10.80;9.50;;;;;;;9.12;100.00;96780.80;106976;1275;22562;-83
2023/04/25 00:32:42;;;;;;;10.90;9.00;;;;;;;9.06;100.00;96778.25;106662;1275;24334;-83
2023/04/25 00:35:10;;;;;;;10.60;8.30;;;;;;;9.04;100.00;96780.77;106914;1275;22628;-83
2023/04/25 00:37:38;;;;;;;10.10;8.20;;;;;;;9.05;100.00;96783.52;106944;1275;22634;-83
2023/04/25 00:40:07;;;;;;;12.10;9.20;;;;;;;9.07;100.00;96782.23;106949;1275;22537;-82
2023/04/25 00:42:36;;;;;;;10.80;8.30;;;;;;;9.05;100.00;96778.66;106781;1275;24360;-83
2023/04/25 00:45:07;;;;;;;14.80;10.00;;;;;;;9.06;100.00;96781.24;106955;1275;22549;-84
2023/04/25 00:47:36;;;;;;;9.30;8.10;;;;;;;9.05;100.00;96777.95;107025;1275;22535;-83
2023/04/25 00:50:04;;;;;;;10.80;8.60;;;;;;;9.06;100.00;96781.26;107010;1275;24380;-83
2023/04/25 00:52:32;;;;;;;9.20;8.30;;;;;;;9.05;100.00;96783.49;107024;1275;24239;-82
2023/04/25 00:55:00;;;;;;;10.60;9.60;;;;;;;9.05;100.00;96782.45;106957;1275;25427;-82
2023/04/25 00:57:29;;;;;;;10.00;9.00;;;;;;;9.04;100.00;96787.11;106848;1275;23033;-82
2023/04/25 00:59:58;;;;;;;10.20;9.20;;;;;;;9.04;100.00;96781.91;106848;1275;24288;-82
2023/04/25 01:02:27;;;;;;;10.20;9.10;;;;;;;9.05;100.00;96786.34;106924;1275;24357;-82
2023/04/25 01:04:55;;;;;;;9.90;8.80;;;;;;;9.03;100.00;96787.02;106954;1275;22521;-82
2023/04/25 01:07:23;;;;;;;12.30;8.90;;;;;;;9.04;100.00;96785.39;106904;1275;22636;-82
2023/04/25 01:09:52;;;;;;;10.40;9.10;;;;;;;9.05;100.00;96786.72;106937;1275;22532;-82
2023/04/25 01:12:20;;;;;;;9.60;8.70;;;;;;;9.02;100.00;96786.29;106670;1275;24425;-82
2023/04/25 01:14:48;;;;;;;9.70;8.70;;;;;;;9.01;100.00;96781.79;106936;1275;25332;-82
2023/04/25 01:17:19;;;;;;;10.60;8.70;;;;;;;9.03;100.00;96781.42;106711;1275;22545;-81
2023/04/25 01:19:48;;;;;;;10.60;8.50;;;;;;;9.03;100.00;96778.66;106912;1275;26643;-81
2023/04/25 01:22:17;;;;;;;11.60;9.30;;;;;;;9.01;100.00;96776.35;106844;1276;25903;-81
2023/04/25 01:24:45;;;;;;;8.10;7.30;;;;;;;9.03;100.00;96779.79;106960;1275;24772;-81
2023/04/25 01:27:14;;;;;;;9.10;8.10;;;;;;;9.05;100.00;96776.77;106926;1275;22530;-81
2023/04/25 01:29:42;;;;;;;8.50;7.70;;;;;;;9.06;100.00;96774.94;106713;1275;22556;-81
2023/04/25 01:32:10;;;;;;;9.60;8.70;;;;;;;9.04;100.00;96778.15;106965;1275;22779;-81
2023/04/25 01:34:39;;;;;;;10.40;8.30;;;;;;;9.03;100.00;96776.45;107011;1275;22617;-82
2023/04/25 01:37:07;;;;;;;9.30;8.30;;;;;;;9.02;100.00;96773.55;107056;1275;22606;-81
2023/04/25 01:39:35;;;;;;;9.70;8.70;;;;;;;9.04;100.00;96775.48;106973;1275;22637;-81
2023/04/25 01:42:03;;;;;;;10.20;9.20;;;;;;;9.04;100.00;96776.86;106937;1275;22531;-81
2023/04/25 01:44:31;;;;;;;11.00;9.90;;;;;;;9.04;100.00;96785.08;106904;1275;22523;-81
2023/04/25 01:46:59;;;;;;;10.80;9.80;;;;;;;9.07;100.00;96784.89;106919;1275;22633;-81
2023/04/25 01:49:28;;;;;;;11.80;10.80;;;;;;;9.07;100.00;96785.67;106833;1275;25376;-81
2023/04/25 01:51:56;;;;;;;12.00;10.90;;;;;;;9.06;100.00;96781.47;106684;1270;22528;-81
2023/04/25 01:54:24;;;;;;;11.90;10.70;;;;;;;9.07;100.00;96783.15;106924;1275;22538;-80
2023/04/25 01:56:52;;;;;;;12.20;11.20;;;;;;;9.08;100.00;96778.75;106884;1275;25458;-81
2023/04/25 01:59:22;;;;;;;12.50;11.40;;;;;;;9.07;100.00;96777.55;106942;1275;22631;-80
2023/04/25 02:02:17;;;;;;;12.10;10.90;;;;;;;9.08;100.00;96777.59;106901;1275;22519;-80
2023/04/25 02:04:45;;;;;;;13.30;12.20;;;;;;;9.07;100.00;96780.69;106676;1275;24195;-80
2023/04/25 02:07:14;;;;;;;12.70;11.50;;;;;;;9.07;100.00;96784.45;106926;1275;22956;-80
2023/04/25 02:09:49;;;;;;;13.90;12.40;;;;;;;9.05;100.00;96781.14;106938;1275;22785;-80
2023/04/25 02:12:19;;;;;;;14.40;13.10;;;;;;;9.00;100.00;96783.59;106910;1275;22647;-80
2023/04/25 02:15:18;;;;;;;15.00;13.60;;;;;;;8.95;100.00;96781.91;106904;1275;22592;-80
2023/04/25 02:17:53;;;;;;;14.20;12.90;;;;;;;8.93;100.00;96782.81;106875;1275;25677;-80
2023/04/25 02:20:23;;;;;;;14.00;12.80;;;;;;;8.91;100.00;96783.27;106931;1275;23158;-80
2023/04/25 02:22:51;;;;;;;13.90;12.70;;;;;;;8.90;100.00;96787.02;106907;1261;24638;-79
2023/04/25 02:25:21;;;;;;;14.20;13.00;;;;;;;8.89;100.00;96787.46;106812;1275;22536;-80
2023/04/25 02:27:51;;;;;;;15.10;13.70;;;;;;;8.86;100.00;96792.02;106914;1275;24222;-79
2023/04/25 02:30:19;;;;;;;15.50;14.10;;;;;;;8.83;100.00;96792.10;106697;1275;24664;-79
2023/04/25 02:32:47;;;;;;;14.80;13.70;;;;;;;8.81;100.00;96793.17;106913;1275;22519;-79
2023/04/25 02:35:15;;;;;;;13.80;12.50;;;;;;;8.80;100.00;96792.95;106950;1275;25321;-79
2023/04/25 02:37:43;;;;;;;14.90;13.40;;;;;;;8.78;100.00;96793.23;106574;1275;25456;-79
2023/04/25 02:40:13;;;;;;;14.20;13.10;;;;;;;8.75;100.00;96797.65;106920;1275;23145;-79
2023/04/25 02:42:41;;;;;;;14.00;12.60;;;;;;;8.73;100.00;96796.27;106919;1275;27023;-78
2023/04/25 02:45:09;;;;;;;14.10;12.70;;;;;;;8.71;100.00;96797.04;106919;1275;25297;-79
2023/04/25 02:47:37;;;;;;;14.00;12.80;;;;;;;8.67;100.00;96795.11;106799;1275;23298;-80
2023/04/25 02:50:06;;;;;;;15.10;13.70;;;;;;;8.64;100.00;96803.02;106867;1275;22561;-78
2023/04/25 02:52:35;;;;;;;14.50;13.30;;;;;;;8.58;100.00;96804.09;106882;1275;22532;-79
2023/04/25 02:55:10;;;;;;;15.20;13.90;;;;;;;8.54;100.00;96802.66;107174;1275;22735;-77
2023/04/25 02:57:38;;;;;;;15.60;14.00;;;;;;;8.53;100.00;96800.38;107121;1275;25334;-77
2023/04/25 03:00:07;;;;;;;14.50;13.10;;;;;;;8.49;100.00;96802.48;106974;1275;22524;-78
2023/04/25 03:02:35;;;;;;;14.30;13.10;;;;;;;8.47;100.00;96808.39;106845;1276;24381;-79
2023/04/25 03:05:03;;;;;;;15.10;13.80;;;;;;;8.45;100.00;96803.67;106921;1275;23125;-80
2023/04/25 03:07:31;;;;;;;14.70;13.30;;;;;;;8.41;100.00;96806.95;106911;1275;22540;-79
2023/04/25 03:10:00;;;;;;;14.90;13.50;;;;;;;8.38;100.00;96807.00;106911;1265;22657;-79
2023/04/25 03:12:30;;;;;;;14.40;13.10;;;;;;;8.34;100.00;96809.36;107040;1275;22602;-81
2023/04/25 03:14:58;;;;;;;15.40;13.90;;;;;;;8.33;100.00;96808.63;107135;1275;24226;-79
2023/04/25 03:17:26;;;;;;;16.10;14.70;;;;;;;8.30;100.00;96810.06;106891;1275;22585;-80
2023/04/25 03:19:55;;;;;;;15.30;13.90;;;;;;;8.26;100.00;96805.19;106745;1275;22651;-78
2023/04/25 03:22:24;;;;;;;14.30;13.10;;;;;;;8.27;100.00;96805.92;106869;1275;24619;-79
2023/04/25 03:24:52;;;;;;;15.50;14.20;;;;;;;8.25;100.00;96809.02;106803;1275;22573;-79
2023/04/25 03:27:20;;;;;;;14.80;13.40;;;;;;;8.23;100.00;96811.11;106924;1276;24193;-79
2023/04/25 03:29:48;;;;;;;14.00;12.60;;;;;;;8.19;100.00;96815.93;106843;1275;22633;-79
2023/04/25 03:32:16;;;;;;;14.50;13.10;;;;;;;8.17;100.00;96813.59;106816;1276;22668;-79
2023/04/25 03:34:44;;;;;;;13.80;12.50;;;;;;;8.15;100.00;96818.25;106848;1275;24052;-79
2023/04/25 03:37:12;;;;;;;13.80;12.50;;;;;;;8.15;100.00;96814.86;106701;1275;24263;-77
2023/04/25 03:39:41;;;;;;;13.70;12.40;;;;;;;8.13;100.00;96820.10;107010;1261;25275;-78
2023/04/25 03:42:09;;;;;;;12.70;11.40;;;;;;;8.13;100.00;96818.55;106644;1275;22606;-78
2023/04/25 03:44:39;;;;;;;13.50;12.20;;;;;;;8.14;100.00;96827.34;106774;1256;24263;-81
2023/04/25 03:47:08;;;;;;;12.30;11.20;;;;;;;8.12;100.00;96826.05;107047;1275;22515;-81
2023/04/25 03:49:36;;;;;;;13.50;11.20;;;;;;;8.12;100.00;96827.98;106988;1275;25333;-81
2023/04/25 03:52:06;;;;;;;12.00;10.90;;;;;;;8.09;100.00;96827.95;106972;1275;22517;-82
2023/04/25 03:54:37;;;;;;;10.50;9.60;;;;;;;8.02;100.00;96829.20;106957;1275;22749;-82
2023/04/25 03:57:17;;;;;;;11.50;10.20;;;;;;;7.99;100.00;96829.22;107001;1275;25341;-81
2023/04/25 03:59:45;;;;;;;12.00;9.70;;;;;;;7.98;100.00;96829.91;106692;1275;25402;-82
2023/04/25 04:02:14;;;;;;;11.50;10.40;;;;;;;7.96;100.00;96833.55;106841;1275;22610;-83
2023/04/25 04:04:44;;;;;;;11.80;10.70;;;;;;;7.92;100.00;96833.90;106970;1275;24476;-82
2023/04/25 04:07:13;;;;;;;10.50;9.50;;;;;;;7.91;100.00;96839.75;106970;1275;22639;-82
2023/04/25 04:09:44;;;;;;;11.10;10.10;;;;;;;7.88;100.00;96838.62;106720;1275;22651;-84
2023/04/25 04:12:21;;;;;;;10.30;9.40;;;;;;;7.86;100.00;96847.11;106847;1275;22603;-83
2023/04/25 04:14:49;;;;;;;10.20;9.20;;;;;;;7.90;100.00;96849.41;106699;1275;22601;-83
2023/04/25 04:17:17;;;;;;;11.30;10.20;;;;;;;7.88;100.00;96853.10;106869;1275;22550;-84
2023/04/25 04:19:45;;;;;;;12.80;10.00;;;;;;;7.85;100.00;96858.45;106818;1275;25316;-84
2023/04/25 04:22:19;;;;;;;10.80;9.80;;;;;;;7.81;100.00;96866.29;106863;1275;23289;-86
2023/04/25 04:24:49;;;;;;;10.50;9.50;;;;;;;7.78;100.00;96863.87;107018;1275;22628;-86
2023/04/25 04:27:39;;;;;;;11.00;9.60;;;;;;;7.79;100.00;96868.79;106766;1275;22532;-84
2023/04/25 04:30:25;;;;;;;10.00;9.00;;;;;;;7.80;100.00;96868.84;106915;1275;23139;-87
2023/04/25 04:32:57;;;;;;;10.30;9.40;;;;;;;7.77;100.00;96868.71;107032;1275;22607;-86
2023/04/25 04:35:26;;;;;;;10.10;9.10;;;;;;;7.74;100.00;96868.35;106839;1275;22853;-83
2023/04/25 04:37:54;;;;;;;9.90;8.90;;;;;;;7.71;100.00;96866.13;106890;1275;22549;-86
2023/04/25 04:40:23;;;;;;;10.10;9.20;;;;;;;7.72;100.00;96867.61;107018;1275;22592;-82
2023/04/25 04:43:04;;;;;;;12.30;11.00;;;;;;;7.72;100.00;96866.76;107436;1275;22531;-81
2023/04/25 04:46:03;;;;;;;12.40;11.10;;;;;;;7.70;100.00;96865.02;107083;1275;22644;-88
2023/04/25 04:48:56;;;;;;;12.00;10.80;;;;;;;7.73;100.00;96870.11;106848;1275;23004;-82
2023/04/25 04:52:02;;;;;;;12.50;11.10;;;;;;;7.72;100.00;96872.09;106589;1275;24444;-77
2023/04/25 04:54:53;;;;;;;11.50;10.20;;;;;;;7.70;100.00;96877.47;107240;1275;24190;-79
2023/04/25 04:57:48;;;;;;;12.60;11.00;;;;;;;7.67;100.00;96875.65;106827;1275;24199;-81
2023/04/25 05:00:40;;;;;;;9.50;8.60;;;;;;;7.69;100.00;96878.35;106909;1275;22517;-81
2023/04/25 05:03:28;;;;;;;10.30;9.20;;;;;;;7.66;100.00;96875.63;107009;1275;22596;-81
2023/04/25 05:06:12;;;;;;;10.10;9.10;;;;;;;7.62;100.00;96872.45;107103;1275;22813;-81
2023/04/25 05:09:09;;;;;;;9.80;8.60;;;;;;;7.57;100.00;96875.04;106663;1275;25367;-81
2023/04/25 05:12:00;;;;;;;9.90;8.90;;;;;;;7.55;100.00;96871.96;107038;1275;24222;-80
2023/04/25 05:14:49;;;;;;;9.70;8.70;;;;;;;7.50;100.00;96878.09;107147;1275;22731;-80
2023/04/25 05:17:35;;;;;;;9.90;9.00;;;;;;;7.50;100.00;96878.37;107590;1275;22524;-80
2023/04/25 05:20:21;;;;;;;11.00;10.10;;;;;;;7.51;100.00;96882.53;107069;1275;22606;-81
2023/04/25 05:23:21;;;;;;;10.20;9.20;;;;;;;7.44;100.00;96882.02;106761;1275;25484;-83
2023/04/25 05:26:17;;;;;;;11.20;10.10;;;;;;;7.47;100.00;96882.24;107042;1275;22531;-85
2023/04/25 05:29:06;;;;;;;13.10;11.70;;;;;;;7.46;100.00;96883.97;106921;1266;24266;-81
2023/04/25 05:31:54;;;;;;;12.60;11.50;;;;;;;7.40;100.00;96884.65;106617;1275;22633;-82
2023/04/25 05:34:22;;;;;;;11.80;10.60;;;;;;;7.40;100.00;96886.00;106759;1275;22518;-80
2023/04/25 05:37:13;;;;;;;12.40;11.20;;;;;;;7.43;100.00;96890.09;106966;1275;22529;-81
2023/04/25 05:39:53;;;;;;;11.30;10.20;;;;;;;7.45;100.00;96893.65;106962;1275;26576;-80
2023/04/25 05:42:37;;;;;;;11.80;10.70;;;;;;;7.45;100.00;96895.42;107028;1275;24227;-82
2023/04/25 05:45:23;;;;;;;11.00;9.90;;;;;;;7.45;100.00;96892.51;106984;1275;25265;-85
2023/04/25 05:48:09;;;;;;;11.50;10.40;;;;;;;7.48;100.00;96895.56;106888;1275;186764;-82
2023/04/25 05:51:04;;;;;;;12.40;11.30;;;;;;;7.48;100.00;96898.88;106703;1275;22592;-83
2023/04/25 05:53:51;;;;;;;12.10;11.00;;;;;;;7.52;100.00;96897.52;106893;1275;22575;-82
2023/04/25 05:56:20;;;;;;;11.70;10.60;;;;;;;7.52;100.00;96899.65;107013;1272;22539;-82
2023/04/25 05:58:52;;;;;;;11.80;10.70;;;;;;;7.51;100.00;96899.56;107256;1275;22527;-81
2023/04/25 06:01:20;;;;;;;12.10;10.90;;;;;;;7.53;100.00;96901.46;107422;1275;22527;-81
2023/04/25 06:03:48;;;;;;;12.70;11.30;;;;;;;7.55;100.00;96902.05;107563;1275;22476;-81
2023/04/25 06:06:17;;;;;;;12.40;11.20;;;;;;;7.59;100.00;96905.14;107331;1275;22521;-82
2023/04/25 06:08:46;;;;;;;13.00;11.60;;;;;;;7.59;100.00;96908.30;107276;1275;22525;-81
2023/04/25 06:11:14;;;;;;;12.50;11.20;;;;;;;7.51;100.00;96909.44;107065;1275;22637;-81
2023/04/25 06:13:42;;;;;;;12.30;11.20;;;;;;;7.50;100.00;96905.98;106862;1275;25398;-81
2023/04/25 06:16:12;;;;;;;11.00;9.90;;;;;;;7.46;100.00;96919.52;107002;1275;22539;-82
2023/04/25 06:18:40;;;;;;;11.40;9.90;;;;;;;7.46;100.00;96915.55;106811;1275;22622;-81
2023/04/25 06:21:09;;;;;;;11.10;10.00;;;;;;;7.47;100.00;96915.86;107166;1275;23598;-82
2023/04/25 06:23:37;;;;;;;10.10;9.10;;;;;;;7.46;100.00;96914.80;106974;1275;22579;-81
2023/04/25 06:30:29;;;;;;;9.30;8.30;;;;;;;7.52;100.00;96922.55;107067;1275;25403;-82
2023/04/25 06:33:02;;;;;;;9.90;9.00;;;;;;;7.53;100.00;96918.08;107040;1275;24474;-82
2023/04/25 06:35:30;;;;;;;8.90;8.10;;;;;;;7.56;100.00;96921.65;106832;1275;22627;-82
2023/04/25 06:37:58;;;;;;;9.30;8.30;;;;;;;7.62;100.00;96922.41;107034;1272;22585;-83
2023/04/25 06:40:26;;;;;;;8.80;7.90;;;;;;;7.66;100.00;96922.02;106750;1275;25346;-83
2023/04/25 06:47:09;;;;;;;9.50;8.50;;;;;;;7.77;100.00;96921.77;107018;1275;25175;-81
2023/04/25 06:49:37;;;;;;;9.40;8.50;;;;;;;7.84;100.00;96923.75;106816;1275;22528;-82
2023/04/25 06:52:06;;;;;;;10.20;9.10;;;;;;;7.83;99.63;96926.49;106926;1275;22528;-82
2023/04/25 06:54:34;;;;;;;10.40;9.30;;;;;;;7.76;99.31;96927.05;106930;1275;22888;-82
2023/04/25 06:57:09;;;;;;;14.80;9.70;;;;;;;7.76;99.24;96919.21;106829;1275;22636;-82
2023/04/25 06:59:37;;;;;;;9.80;8.90;;;;;;;7.77;99.44;96919.95;106809;1275;25482;-81
2023/04/25 07:02:06;;;;;;;10.70;9.60;;;;;;;7.80;99.14;96920.09;106861;1275;24337;-82
2023/04/25 07:04:34;;;;;;;10.00;9.10;;;;;;;7.85;99.27;96918.15;106668;1276;24059;-81
2023/04/25 07:07:03;;;;;;;10.00;9.10;;;;;;;7.88;99.35;96921.23;106975;1275;22630;-81
2023/04/25 07:09:37;;;;;;;10.00;8.90;;;;;;;7.95;99.62;96917.73;106759;1275;22581;-80
2023/04/25 07:12:05;;;;;;;9.20;8.30;;;;;;;8.02;98.74;96925.30;106800;1276;24209;-80
2023/04/25 07:14:34;;;;;;;10.30;7.50;;;;;;;7.99;97.66;96924.98;107031;1275;22559;-80
2023/04/25 07:17:02;;;;;;;7.90;7.20;;;;;;;8.02;97.58;96926.16;106931;1275;22584;-80
2023/04/25 07:19:32;;;;;;;7.40;6.70;;;;;;;8.00;96.62;96923.11;106760;1272;24203;-81
2023/04/25 07:22:01;;;;;;;7.60;6.80;;;;;;;7.99;96.76;96921.52;106912;1275;22756;-81
2023/04/25 07:24:30;;;;;;;7.40;6.00;;;;;;;8.02;96.84;96921.77;106821;1276;22633;-81
2023/04/25 07:26:58;;;;;;;7.00;6.40;;;;;;;8.08;96.15;96918.88;106709;1275;23154;-81
2023/04/25 07:29:45;;;;;;;7.30;6.60;;;;;;;8.07;95.05;96923.63;106983;1275;22521;-80
2023/04/25 07:32:13;;;;;;;6.80;5.50;;;;;;;8.03;94.58;96926.56;106767;1275;22573;-80
2023/04/25 07:34:43;;;;;;;6.30;5.70;;;;;;;8.01;94.26;96923.94;107015;1275;25256;-81
2023/04/25 07:37:11;;;;;;;8.00;5.20;;;;;;;8.07;94.64;96923.25;106685;1275;22574;-80
2023/04/25 07:39:49;;;;;;;8.90;5.70;;;;;;;8.16;94.14;96927.34;106719;1275;22534;-80
2023/04/25 07:42:17;;;;;;;5.70;5.00;;;;;;;8.13;93.58;96926.36;106692;1275;22573;-80
2023/04/25 07:44:45;;;;;;;5.90;5.30;;;;;;;8.16;93.55;96926.13;106618;1275;24399;-80
2023/04/25 07:47:14;;;;;;;6.00;5.40;;;;;;;8.23;93.52;96924.79;106811;1275;22528;-80
2023/04/25 07:49:42;;;;;;;7.00;5.40;;;;;;;8.27;93.01;96926.46;106794;1275;22521;-82
2023/04/25 07:52:11;;;;;;;6.20;5.40;;;;;;;8.27;91.64;96923.56;106800;1275;25262;-80
2023/04/25 07:54:43;;;;;;;7.80;5.00;;;;;;;8.29;91.99;96925.13;106784;1275;22695;-81
2023/04/25 07:57:16;;;;;;;8.30;5.50;;;;;;;8.35;91.35;96927.43;107196;1275;22539;-81
2023/04/25 07:59:45;;;;;;;6.00;5.40;;;;;;;8.35;92.09;96929.14;107021;1269;24221;-81
2023/04/25 08:02:14;;;;;;;7.70;5.50;;;;;;;8.39;90.70;96926.90;106882;1275;22534;-82
2023/04/25 08:04:42;;;;;;;6.70;4.90;;;;;;;8.38;91.23;96925.91;106958;1275;22527;-84
2023/04/25 08:07:13;;;;;;;6.00;5.30;;;;;;;8.49;91.48;96920.99;106868;1275;22555;-82
2023/04/25 08:09:48;;;;;;;7.00;6.10;;;;;;;8.48;89.51;96923.20;106990;1275;25185;-80
2023/04/25 08:12:23;;;;;;;6.60;5.60;;;;;;;8.33;89.26;96930.65;107033;1275;25358;-80
2023/04/25 08:14:51;;;;;;;7.60;6.20;;;;;;;8.29;89.38;96929.58;106865;1275;23230;-80
2023/04/25 08:17:19;;;;;;;7.80;5.60;;;;;;;8.27;89.77;96926.95;106904;1275;22556;-81
2023/04/25 08:19:47;;;;;;;8.20;6.50;;;;;;;8.30;89.82;96923.48;106882;1275;25322;-81
2023/04/25 08:22:24;;;;;;;6.90;6.10;;;;;;;8.29;89.83;96927.52;107174;1275;22529;-80
2023/04/25 08:24:58;;;;;;;8.10;6.60;;;;;;;8.32;89.44;96928.64;106986;1275;22699;-81
2023/04/25 08:27:27;;;;;;;6.90;6.20;;;;;;;8.31;89.19;96922.77;106972;1275;22518;-81
2023/04/25 08:29:58;;;;;;;11.60;6.50;;;;;;;8.41;89.96;96929.55;106960;1275;24412;-80
2023/04/25 08:32:26;;;;;;;8.00;6.50;;;;;;;8.53;89.26;96929.67;106955;1275;26606;-80
2023/04/25 08:35:17;;;;;;;8.70;7.20;;;;;;;8.52;88.97;96930.42;106888;1275;22529;-80
2023/04/25 08:37:45;;;;;;;8.40;7.40;;;;;;;8.52;89.39;96924.36;106736;1275;22613;-80
2023/04/25 08:40:16;;;;;;;9.70;8.70;;;;;;;8.53;88.75;96928.55;106930;1275;25480;-80
2023/04/25 08:42:57;;;;;;;9.10;8.20;;;;;;;8.49;88.40;96931.19;106706;1275;22606;-80
2023/04/25 08:45:27;;;;;;;10.90;9.20;;;;;;;8.47;88.26;96930.36;106785;1275;22645;-80
2023/04/25 08:47:57;;;;;;;9.90;9.00;;;;;;;8.42;87.55;96926.64;106747;1275;22634;-80
2023/04/25 08:50:26;;;;;;;10.50;9.50;;;;;;;8.50;88.94;96924.39;106699;1256;24176;-80
2023/04/25 08:52:55;;;;;;;10.80;9.80;;;;;;;8.68;89.41;96927.05;106854;1275;22522;-80
2023/04/25 08:55:26;;;;;;;11.30;10.00;;;;;;;8.72;89.11;96926.34;106952;1275;22771;-79
2023/04/25 08:58:00;;;;;;;10.80;9.80;;;;;;;8.77;88.60;96928.52;106917;1275;22538;-79
2023/04/25 09:00:29;;;;;;;10.30;9.20;;;;;;;8.81;87.03;96931.31;106988;1275;22518;-80
2023/04/25 09:02:59;;;;;;;9.40;8.50;;;;;;;8.76;86.22;96931.66;106868;1275;22659;-81
2023/04/25 09:05:32;;;;;;;9.40;8.50;;;;;;;8.75;85.79;96932.08;106709;1275;22627;-81
2023/04/25 09:08:01;;;;;;;9.30;8.40;;;;;;;8.76;85.43;96934.65;106760;1275;24236;-81
2023/04/25 09:10:29;;;;;;;10.30;8.90;;;;;;;8.80;85.38;96938.19;106731;1275;22532;-80
2023/04/25 09:13:06;;;;;;;10.20;9.10;;;;;;;8.83;85.86;96939.46;106744;1275;25388;-80
2023/04/25 09:15:52;;;;;;;10.20;9.10;;;;;;;8.86;85.05;96940.39;106676;1275;24431;-81
2023/04/25 09:18:36;;;;;;;9.60;8.60;;;;;;;8.87;83.98;96944.66;106786;1275;22655;-80
2023/04/25 09:21:10;;;;;;;9.80;8.60;;;;;;;8.87;83.33;96949.65;106754;1275;24343;-80
2023/04/25 09:23:48;;;;;;;12.80;9.80;;;;;;;8.89;83.88;96945.73;106808;1275;23369;-80
2023/04/25 09:26:18;;;;;;;;;;;;;;;8.93;83.27;96946.13;107075;1275;22611;-81
2023/04/25 09:28:47;;;;;;;9.10;7.50;;;;;;;8.94;82.57;96947.50;106871;1275;24049;-80
2023/04/25 09:31:24;;;;;;;10.50;8.70;;;;;;;8.97;82.39;96949.63;106927;1275;22648;-81
2023/04/25 09:34:00;;;;;;;12.10;9.20;;;;;;;9.03;81.19;96950.69;106958;1275;22522;-81
2023/04/25 09:36:34;;;;;;;7.80;6.90;;;;;;;9.07;79.53;96951.66;106987;1275;22569;-81
2023/04/25 09:39:19;;;;;;;8.80;7.90;;;;;;;9.09;79.44;96944.45;107015;1275;24445;-81
2023/04/25 09:41:59;;;;;;;8.70;7.20;;;;;;;9.18;78.04;96950.23;106962;1272;22612;-82
2023/04/25 09:44:27;;;;;;;9.30;6.40;;;;;;;9.26;79.06;96948.14;106981;1275;22633;-81
2023/04/25 09:46:55;;;;;;;7.60;6.20;;;;;;;9.42;78.48;96941.83;106638;1275;25325;-79
2023/04/25 09:49:27;;;;;;;7.40;6.50;;;;;;;9.49;76.81;96943.02;106969;1275;25303;-80
2023/04/25 09:52:04;;;;;;;8.10;6.90;;;;;;;9.55;77.23;96942.20;107042;1275;22535;-81
2023/04/25 09:54:37;;;;;;;7.40;6.50;;;;;;;9.66;77.16;96943.63;107010;1275;24401;-81
2023/04/25 09:57:23;;;;;;;8.60;6.90;;;;;;;9.75;76.70;96941.88;106820;1275;24842;-81
2023/04/25 09:59:54;;;;;;;7.40;6.60;;;;;;;9.79;75.94;96946.09;106852;1275;22487;-80
2023/04/25 10:02:26;;;;;;;7.10;6.40;;;;;;;9.82;76.19;96945.17;106814;1275;24233;-80
2023/04/25 10:05:00;;;;;;;8.10;6.50;;;;;;;9.93;75.45;96940.88;107009;1275;25389;-80
2023/04/25 10:07:37;;;;;;;6.90;5.90;;;;;;;10.04;75.48;96939.88;106873;1275;22647;-80
2023/04/25 10:10:12;;;;;;;7.70;6.00;;;;;;;10.01;72.24;96942.55;107027;1275;22625;-78
2023/04/25 10:12:43;;;;;;;6.20;5.60;;;;;;;10.04;72.66;96937.66;106776;1275;24173;-80
2023/04/25 10:15:12;;;;;;;7.10;5.60;;;;;;;10.09;71.32;96934.55;106855;1275;25742;-80
2023/04/25 10:17:41;;;;;;;5.90;5.20;;;;;;;10.09;71.08;96939.02;107036;1275;24167;-81
2023/04/25 10:20:10;;;;;;;6.60;5.40;;;;;;;10.05;68.91;96935.20;106936;1275;24216;-81
2023/04/25 10:22:42;;;;;;;6.20;5.60;;;;;;;10.00;69.87;96936.75;107009;1275;25501;-81
2023/04/25 10:25:11;;;;;;;7.60;5.70;;;;;;;10.06;70.03;96931.73;107003;1275;22639;-81
2023/04/25 10:27:40;;;;;;;7.00;5.80;;;;;;;10.06;68.87;96934.05;106976;1275;22926;-81
2023/04/25 10:30:12;;;;;;;10.10;5.70;;;;;;;10.02;69.56;96931.27;107084;1275;24353;-80
2023/04/25 10:32:45;;;;;;;6.50;5.30;;;;;;;10.04;70.37;96925.98;107248;1275;22617;-80
2023/04/25 10:35:19;;;;;;;7.70;6.00;;;;;;;10.14;70.59;96924.33;107513;1275;22531;-80
2023/04/25 10:38:05;;;;;;;7.10;5.20;;;;;;;10.15;70.53;96924.39;107917;1275;24156;-81
2023/04/25 10:40:33;;;;;;;7.70;5.70;;;;;;;10.18;69.98;96928.52;107781;1275;26679;-81
2023/04/25 10:43:30;;;;;;;6.20;5.30;;;;;;;10.12;69.72;96918.09;107785;1275;22530;-82
2023/04/25 10:46:02;;;;;;;8.60;6.30;;;;;;;10.14;71.09;96917.42;106997;1275;23454;-80
2023/04/25 10:48:31;;;;;;;8.60;5.60;;;;;;;10.23;71.02;96909.04;106986;1275;25658;-81
2023/04/25 10:51:26;;;;;;;6.70;5.40;;;;;;;10.34;71.39;96904.98;107017;1275;22647;-80
2023/04/25 10:54:06;;;;;;;7.40;5.60;;;;;;;10.50;68.62;96904.46;106987;1275;25315;-82
2023/04/25 10:56:44;;;;;;;6.90;5.50;;;;;;;10.60;69.44;96900.73;107062;1275;24171;-80
2023/04/25 10:59:18;;;;;;;8.50;5.40;;;;;;;10.69;68.95;96899.73;107001;1275;22521;-79
2023/04/25 11:01:48;;;;;;;6.40;5.00;;;;;;;10.76;68.60;96903.89;106857;1275;22939;-79
2023/04/25 11:04:36;;;;;;;7.70;5.30;;;;;;;10.73;67.25;96902.32;106998;1275;22789;-79
2023/04/25 11:07:18;;;;;;;7.00;4.80;;;;;;;10.59;66.13;96900.95;106908;1275;24425;-79
2023/04/25 11:09:46;;;;;;;6.50;4.20;;;;;;;10.55;67.01;96903.15;107051;1275;25281;-80
2023/04/25 11:12:14;;;;;;;6.20;5.10;;;;;;;10.60;66.22;96900.43;107058;1275;22568;-81
2023/04/25 11:14:42;;;;;;;9.10;5.00;;;;;;;10.60;66.10;96904.52;106949;1275;23038;-80
2023/04/25 11:17:11;;;;;;;8.90;5.30;;;;;;;10.61;66.06;96902.61;106978;1275;24225;-80
2023/04/25 11:19:39;;;;;;;6.50;4.60;;;;;;;10.64;66.53;96902.20;106726;1275;22528;-81
2023/04/25 11:22:07;;;;;;;7.20;5.40;;;;;;;10.67;64.73;96908.11;106998;1275;22774;-80
2023/04/25 11:24:36;;;;;;;6.30;4.40;;;;;;;10.61;64.30;96903.48;106976;1275;22617;-80
2023/04/25 11:27:08;;;;;;;7.90;5.00;;;;;;;10.60;63.55;96906.73;106905;1275;22629;-80
2023/04/25 11:29:36;;;;;;;6.00;5.00;;;;;;;10.57;64.81;96907.77;106848;1275;25264;-80
2023/04/25 11:32:04;;;;;;;6.10;4.60;;;;;;;10.59;64.37;96912.82;106697;1275;22539;-81
2023/04/25 11:34:33;;;;;;;5.30;4.60;;;;;;;10.55;62.77;96918.08;106997;1275;22600;-81
2023/04/25 11:37:02;;;;;;;5.70;4.90;;;;;;;10.48;63.50;96914.01;107007;1275;24203;-81
2023/04/25 11:39:30;;;;;;;6.60;5.00;;;;;;;10.42;62.62;96918.17;106875;1275;22536;-80
2023/04/25 11:41:58;;;;;;;5.80;4.70;;;;;;;10.36;63.03;96915.31;106937;1275;25348;-80
2023/04/25 11:44:28;;;;;;;5.20;4.50;;;;;;;10.40;63.74;96913.52;106925;1275;22580;-80
2023/04/25 11:46:56;;;;;;;7.30;4.50;;;;;;;10.46;62.91;96912.79;106946;1275;24264;-81
2023/04/25 11:49:30;;;;;;;6.30;4.50;;;;;;;10.49;63.73;96910.39;107047;1254;24372;-81
2023/04/25 11:51:59;;;;;;;5.60;4.30;;;;;;;10.60;62.94;96907.19;107099;1275;22544;-81
2023/04/25 11:54:27;;;;;;;5.60;4.20;;;;;;;10.64;62.72;96905.30;107046;1275;24244;-81